Time;durP1;ratioP1;P1;durP2;ratioP2;P2;SDS_P1;SDS_P2;PMS_P1;PMS_P2;Temp;Humidity;BMP_temperature;BMP_pressure;BME280_temperature;BME280_humidity;BME280_pressure;Samples;Min_cycle;Max_cycle;Signal;HPM_P1;HPM_P2
2022/04/10 00:00:05;;;;;;;15.00;8.90;;;;;;;16.26;44.05;99272.21;117279;1185;23554;-48
2022/04/10 00:02:33;;;;;;;14.10;8.70;;;;;;;16.21;44.07;99274.02;117148;1184;23019;-58
2022/04/10 00:05:02;;;;;;;12.60;8.50;;;;;;;16.22;44.15;99273.81;117396;1186;23576;-58
2022/04/10 00:07:31;;;;;;;15.70;8.50;;;;;;;16.23;44.09;99274.65;117293;1186;22825;-49
2022/04/10 00:09:59;;;;;;;12.30;7.70;;;;;;;16.21;44.14;99266.59;117317;1186;23587;-49
2022/04/10 00:12:28;;;;;;;10.30;7.30;;;;;;;16.19;44.15;99257.86;117169;1186;23619;-48
2022/04/10 00:14:57;;;;;;;13.30;7.80;;;;;;;16.17;44.26;99266.09;117304;1185;21852;-58
2022/04/10 00:17:45;;;;;;;13.00;7.90;;;;;;;16.16;44.22;99273.23;117170;1182;22916;-58
2022/04/10 00:20:13;;;;;;;12.70;7.90;;;;;;;16.09;44.22;99268.83;117394;1185;23071;-50
2022/04/10 00:23:04;;;;;;;11.90;7.10;;;;;;;16.03;44.20;99275.69;117057;1185;22116;-50
2022/04/10 00:25:52;;;;;;;12.90;8.40;;;;;;;15.89;44.08;99268.60;117085;1186;21858;-59
2022/04/10 00:28:22;;;;;;;13.60;8.00;;;;;;;15.78;44.16;99264.88;117328;1186;23633;-59
2022/04/10 00:30:50;;;;;;;15.30;8.70;;;;;;;15.74;44.18;99260.88;117144;1186;23554;-59
2022/04/10 00:33:19;;;;;;;11.90;8.00;;;;;;;15.71;44.28;99259.92;117182;1185;22789;-58
2022/04/10 00:35:53;;;;;;;13.10;8.60;;;;;;;15.69;44.35;99266.74;117067;1186;23554;-59
2022/04/10 00:38:22;;;;;;;14.20;8.30;;;;;;;15.65;44.41;99267.17;117244;1186;21856;-59
2022/04/10 00:40:50;;;;;;;13.70;7.00;;;;;;;15.63;44.42;99271.86;117211;1186;23599;-59
2022/04/10 00:43:20;;;;;;;9.70;6.70;;;;;;;15.62;44.53;99272.29;117453;1185;23557;-59
2022/04/10 00:45:49;;;;;;;7.60;5.50;;;;;;;15.64;44.63;99279.77;117292;1185;23672;-57
2022/04/10 00:48:19;;;;;;;9.70;5.60;;;;;;;15.67;44.69;99289.68;117267;1186;23739;-57
2022/04/10 00:53:42;;;;;;;6.90;4.60;;;;;;;15.80;44.39;99289.39;117032;1185;23556;-47
2022/04/10 00:56:11;;;;;;;7.30;4.30;;;;;;;15.81;44.32;99286.73;117122;1186;23650;-49
2022/04/10 00:58:39;;;;;;;6.60;4.50;;;;;;;15.75;44.35;99286.61;117165;1189;21896;-58
2022/04/10 01:01:07;;;;;;;8.50;4.90;;;;;;;15.72;44.36;99282.90;117337;1186;23588;-57
2022/04/10 01:03:37;;;;;;;6.80;3.80;;;;;;;15.68;44.45;99282.19;117329;1185;22858;-48
2022/04/10 01:06:06;;;;;;;5.90;3.60;;;;;;;15.64;44.41;99281.20;117298;1186;23573;-48
2022/04/10 01:08:36;;;;;;;6.40;3.70;;;;;;;15.57;44.42;99285.57;117324;1185;22931;-48
2022/04/10 01:11:04;;;;;;;6.90;3.90;;;;;;;15.50;44.29;99275.00;117171;1187;23530;-57
2022/04/10 01:13:34;;;;;;;6.60;3.90;;;;;;;15.43;44.36;99274.60;117275;1185;23576;-48
2022/04/10 01:16:03;;;;;;;8.40;4.50;;;;;;;15.37;44.36;99276.13;117320;1185;23563;-49
2022/04/10 01:18:32;;;;;;;7.50;3.90;;;;;;;15.27;44.30;99273.80;117323;1186;22916;-48
2022/04/10 01:21:25;;;;;;;8.60;4.30;;;;;;;15.20;44.33;99283.20;117157;1180;23692;-49
2022/04/10 01:23:54;;;;;;;8.60;3.70;;;;;;;15.14;44.44;99291.06;117334;1185;21966;-48
2022/04/10 01:26:26;;;;;;;7.60;3.70;;;;;;;15.07;44.32;99295.13;117318;1185;21850;-57
2022/04/10 01:29:08;;;;;;;6.20;3.90;;;;;;;15.00;44.40;99304.45;117318;1185;22938;-48
2022/04/10 01:31:39;;;;;;;6.20;4.10;;;;;;;14.95;44.34;99303.80;117317;1186;24174;-58
2022/04/10 01:34:13;;;;;;;6.70;4.00;;;;;;;14.92;44.52;99304.13;117317;1186;21848;-48
2022/04/10 01:36:42;;;;;;;6.70;4.00;;;;;;;14.90;44.61;99311.80;117306;1185;22930;-58
2022/04/10 01:39:15;;;;;;;10.90;3.80;;;;;;;14.84;44.53;99309.41;117326;1186;21896;-48
2022/04/10 01:41:45;;;;;;;7.10;3.20;;;;;;;14.81;44.53;99312.38;117270;1183;21845;-48
2022/04/10 01:44:14;;;;;;;5.00;3.30;;;;;;;14.80;44.56;99312.45;117294;1185;22169;-48
2022/04/10 01:46:43;;;;;;;6.20;3.10;;;;;;;14.79;44.69;99309.31;117216;1185;23557;-48
2022/04/10 01:49:12;;;;;;;4.40;3.10;;;;;;;14.80;44.83;99306.45;117219;1186;23640;-48
2022/04/10 01:51:40;;;;;;;5.90;3.20;;;;;;;14.81;44.82;99310.82;117265;1186;22620;-57
2022/04/10 01:54:09;;;;;;;8.60;3.10;;;;;;;14.81;44.89;99312.55;117295;1186;23573;-58
2022/04/10 01:56:49;;;;;;;5.00;3.00;;;;;;;14.81;44.79;99314.16;117182;1186;22805;-58
2022/04/10 01:59:17;;;;;;;4.60;2.80;;;;;;;14.80;44.85;99314.39;117326;1180;23585;-58
2022/04/10 02:01:48;;;;;;;5.80;2.80;;;;;;;14.76;44.90;99317.21;117318;1186;21848;-48
2022/04/10 02:04:17;;;;;;;4.90;2.60;;;;;;;14.63;45.17;99315.67;117312;1186;22929;-49
2022/04/10 02:06:45;;;;;;;7.20;2.90;;;;;;;14.59;45.13;99320.61;117208;1185;23552;-57
2022/04/10 02:09:14;;;;;;;4.70;3.30;;;;;;;14.56;45.18;99317.89;117313;1186;21857;-58
2022/04/10 02:11:53;;;;;;;8.00;3.20;;;;;;;14.65;45.10;99324.06;117285;1186;23588;-57
2022/04/10 02:14:41;;;;;;;5.70;2.40;;;;;;;14.64;45.05;99328.15;117307;1186;21853;-48
2022/04/10 02:17:10;;;;;;;5.80;2.70;;;;;;;14.61;45.14;99335.68;117344;1185;22823;-58
2022/04/10 02:19:38;;;;;;;3.90;2.80;;;;;;;14.57;45.03;99336.78;117246;1186;23557;-48
2022/04/10 02:22:06;;;;;;;5.00;2.60;;;;;;;14.52;45.04;99334.51;117280;1181;23572;-58
2022/04/10 02:24:35;;;;;;;5.30;2.60;;;;;;;14.48;45.03;99335.24;117172;1186;22866;-56
2022/04/10 02:27:04;;;;;;;6.30;2.40;;;;;;;14.45;45.06;99341.21;117164;1186;21861;-58
2022/04/10 02:29:32;;;;;;;4.60;2.40;;;;;;;14.42;45.13;99352.80;117346;1185;21855;-58
2022/04/10 02:32:00;;;;;;;5.40;2.70;;;;;;;14.40;45.22;99356.42;117435;1185;23576;-57
2022/04/10 02:34:31;;;;;;;4.60;2.50;;;;;;;14.28;45.24;99347.05;117004;1185;21853;-47
2022/04/10 02:37:00;;;;;;;5.40;2.50;;;;;;;14.24;45.34;99348.13;117291;1186;22650;-48
2022/04/10 02:39:29;;;;;;;6.60;2.50;;;;;;;14.18;45.30;99343.77;117317;1186;23570;-58
2022/04/10 02:41:57;;;;;;;5.80;2.80;;;;;;;14.14;45.53;99341.80;117131;1185;23672;-49
2022/04/10 02:44:26;;;;;;;6.30;2.60;;;;;;;14.22;45.27;99342.91;117981;1185;23549;-49
2022/04/10 02:46:55;;;;;;;5.10;2.40;;;;;;;14.21;45.33;99354.25;117171;1186;22721;-58
2022/04/10 02:49:24;;;;;;;3.90;2.20;;;;;;;14.18;45.26;99359.16;117046;1184;21922;-58
2022/04/10 02:51:52;;;;;;;4.90;2.10;;;;;;;14.15;45.35;99357.00;117264;1185;22806;-49
2022/04/10 02:54:21;;;;;;;6.40;2.30;;;;;;;14.10;45.38;99353.81;117367;1184;22602;-49
2022/04/10 02:56:49;;;;;;;5.90;2.50;;;;;;;14.01;45.42;99358.27;117409;1184;22812;-49
2022/04/10 02:59:37;;;;;;;4.40;2.40;;;;;;;13.89;45.64;99363.90;117095;1186;22971;-48
2022/04/10 03:02:06;;;;;;;6.90;2.10;;;;;;;13.83;45.71;99367.30;117355;1186;23452;-48
2022/04/10 03:04:34;;;;;;;4.70;1.80;;;;;;;13.84;45.57;99372.56;118758;1184;23552;-48
2022/04/10 03:07:03;;;;;;;4.10;1.80;;;;;;;13.81;45.81;99381.48;117261;1186;23572;-48
2022/04/10 03:09:51;;;;;;;3.70;2.20;;;;;;;13.82;45.58;99387.66;117235;1186;23659;-49
2022/04/10 03:12:20;;;;;;;4.20;2.00;;;;;;;13.77;45.76;99388.71;117286;1185;22819;-49
2022/04/10 03:15:08;;;;;;;5.60;2.10;;;;;;;13.70;45.92;99390.45;117395;1186;23473;-49
2022/04/10 03:17:38;;;;;;;;;;;;;;;13.57;45.88;99387.95;117321;1185;23534;-49
2022/04/10 03:20:27;;;;;;;3.60;2.00;;;;;;;13.41;45.76;99392.45;117263;1186;23449;-57
2022/04/10 03:22:56;;;;;;;3.20;1.80;;;;;;;13.30;45.79;99397.59;117343;1186;21852;-48
2022/04/10 03:25:24;;;;;;;4.60;2.10;;;;;;;13.24;45.92;99409.81;117288;1185;21852;-48
2022/04/10 03:27:53;;;;;;;3.30;1.70;;;;;;;13.09;46.22;99409.16;117286;1185;21853;-58
2022/04/10 03:30:21;;;;;;;7.00;2.20;;;;;;;13.02;46.39;99408.39;117974;1185;22039;-56
2022/04/10 03:32:56;;;;;;;6.00;2.10;;;;;;;13.13;46.19;99408.67;117282;1186;23563;-57
2022/04/10 03:35:24;;;;;;;4.20;1.80;;;;;;;13.15;46.21;99407.35;117323;1185;23576;-58
2022/04/10 03:37:53;;;;;;;3.10;1.50;;;;;;;13.18;46.23;99413.05;117321;1185;23557;-48
2022/04/10 03:40:21;;;;;;;3.50;1.50;;;;;;;13.19;46.29;99418.66;117348;1186;23585;-48
2022/04/10 03:42:51;;;;;;;3.70;1.50;;;;;;;13.16;46.41;99421.56;117339;1185;23570;-48
2022/04/10 03:45:20;;;;;;;6.30;1.80;;;;;;;13.14;46.44;99421.49;117331;1185;23576;-57
2022/04/10 03:47:48;;;;;;;7.50;1.50;;;;;;;13.14;46.62;99422.38;117247;1182;21859;-48
2022/04/10 03:50:20;;;;;;;4.80;1.50;;;;;;;13.15;46.56;99420.73;117338;1185;22662;-49
2022/04/10 03:52:49;;;;;;;10.30;2.50;;;;;;;13.19;46.62;99427.11;117329;1184;23576;-57
2022/04/10 03:55:17;;;;;;;3.70;1.70;;;;;;;13.22;46.59;99437.54;117319;1185;24045;-49
2022/04/10 03:57:47;;;;;;;9.20;2.30;;;;;;;13.24;46.75;99438.91;117244;1186;22172;-48
2022/04/10 04:00:35;;;;;;;6.50;1.60;;;;;;;13.24;46.75;99444.17;117378;1185;21869;-60
2022/04/10 04:03:03;;;;;;;4.40;1.70;;;;;;;13.23;46.73;99452.31;117382;1185;23557;-59
2022/04/10 04:05:32;;;;;;;2.70;1.50;;;;;;;13.23;46.95;99461.29;117200;1186;23554;-50
2022/04/10 04:08:01;;;;;;;5.60;1.80;;;;;;;13.26;46.87;99469.47;117316;1185;22840;-60
2022/04/10 04:10:30;;;;;;;3.50;1.40;;;;;;;13.30;47.03;99466.34;117287;1185;23284;-60
2022/04/10 04:13:00;;;;;;;2.80;1.50;;;;;;;13.32;47.14;99473.98;117470;1185;23557;-60
2022/04/10 04:15:48;;;;;;;5.90;1.90;;;;;;;13.36;47.14;99476.84;117275;1186;21856;-60
2022/04/10 04:18:21;;;;;;;8.60;1.80;;;;;;;13.38;47.28;99475.89;117253;1185;22908;-60
2022/04/10 04:21:09;;;;;;;5.50;2.00;;;;;;;13.44;47.35;99476.41;117152;1182;21927;-50
2022/04/10 04:23:40;;;;;;;12.00;2.80;;;;;;;13.51;47.42;99480.00;117275;1185;21908;-49
2022/04/10 04:26:10;;;;;;;8.10;2.50;;;;;;;13.59;47.44;99491.00;117338;1185;23549;-50
2022/04/10 04:28:39;;;;;;;13.40;2.60;;;;;;;13.64;47.49;99489.88;117136;1186;21928;-50
2022/04/10 04:31:07;;;;;;;4.50;1.80;;;;;;;13.73;47.49;99486.20;117349;1185;23563;-60
2022/04/10 04:33:37;;;;;;;4.70;2.60;;;;;;;13.82;47.46;99483.91;117337;1181;23632;-59
2022/04/10 04:36:06;;;;;;;4.90;2.50;;;;;;;13.92;47.54;99479.64;117296;1185;23575;-50
2022/04/10 04:38:34;;;;;;;12.50;6.50;;;;;;;14.02;47.52;99483.80;117195;1185;21871;-49
2022/04/10 04:41:03;;;;;;;5.50;3.20;;;;;;;14.12;47.58;99487.80;117322;1186;23550;-59
2022/04/10 04:43:32;;;;;;;8.50;4.00;;;;;;;14.19;47.63;99490.54;117318;1186;23579;-59
2022/04/10 04:46:00;;;;;;;6.10;3.00;;;;;;;14.23;47.73;99490.20;117318;1186;22521;-59
2022/04/10 04:48:28;;;;;;;6.50;2.30;;;;;;;14.29;47.73;99490.46;117302;1186;23576;-50
2022/04/10 04:51:00;;;;;;;5.50;3.10;;;;;;;14.37;47.73;99486.42;117341;1186;21976;-57
2022/04/10 04:53:46;;;;;;;2.90;2.10;;;;;;;14.47;47.78;99481.05;117265;1185;22807;-50
2022/04/10 04:56:16;;;;;;;3.60;2.40;;;;;;;14.56;47.82;99481.04;117314;1185;22928;-58
2022/04/10 04:58:44;;;;;;;5.10;2.40;;;;;;;14.63;47.90;99487.23;117210;1185;21855;-49
2022/04/10 05:01:13;;;;;;;3.00;1.80;;;;;;;14.73;47.91;99486.69;119343;1185;22158;-57
2022/04/10 05:03:43;;;;;;;5.70;2.40;;;;;;;14.85;47.96;99488.12;117660;1180;23013;-58
2022/04/10 05:06:12;;;;;;;4.60;2.50;;;;;;;14.95;48.04;99490.69;117359;1184;24004;-58
2022/04/10 05:09:00;;;;;;;4.60;2.10;;;;;;;15.07;47.89;99493.50;117300;1185;22607;-49
2022/04/10 05:11:28;;;;;;;4.00;1.60;;;;;;;15.17;48.05;99493.24;117318;1186;22842;-48
2022/04/10 05:14:16;;;;;;;3.60;2.30;;;;;;;15.27;47.98;99487.83;116981;1188;21862;-48
2022/04/10 05:16:45;;;;;;;5.00;2.30;;;;;;;15.35;47.95;99487.27;117272;1186;23595;-50
2022/04/10 05:19:14;;;;;;;5.30;2.80;;;;;;;15.48;48.13;99487.20;117228;1186;21853;-49
2022/04/10 05:21:43;;;;;;;5.10;2.40;;;;;;;15.60;48.02;99484.55;117050;1186;23555;-49
2022/04/10 05:24:11;;;;;;;4.50;2.50;;;;;;;15.72;48.20;99488.39;117224;1186;22718;-49
2022/04/10 05:26:39;;;;;;;3.00;2.40;;;;;;;15.84;48.19;99486.59;116984;1186;23562;-49
2022/04/10 05:29:08;;;;;;;4.60;2.70;;;;;;;15.95;48.10;99479.70;118916;1185;23566;-58
2022/04/10 05:31:37;;;;;;;5.00;2.90;;;;;;;16.03;48.00;99484.27;117275;1186;21855;-58
2022/04/10 05:34:06;;;;;;;3.10;2.30;;;;;;;16.13;48.06;99481.30;117229;1185;21860;-59
2022/04/10 05:36:36;;;;;;;3.00;2.10;;;;;;;16.23;47.99;99479.59;117222;1185;21848;-57
2022/04/10 05:39:04;;;;;;;4.00;2.60;;;;;;;16.35;48.21;99482.73;117429;1184;21848;-58
2022/04/10 05:41:33;;;;;;;4.00;2.40;;;;;;;16.45;48.07;99487.86;117382;1186;21846;-58
2022/04/10 05:44:04;;;;;;;3.30;2.40;;;;;;;16.55;47.98;99490.39;117325;1185;22652;-58
2022/04/10 05:46:38;;;;;;;2.90;2.00;;;;;;;16.60;47.94;99484.08;117363;1185;22912;-59
2022/04/10 05:49:12;;;;;;;3.60;2.30;;;;;;;16.63;47.80;99485.92;117386;1183;21849;-59
2022/04/10 05:51:40;;;;;;;3.20;1.80;;;;;;;16.60;47.70;99483.55;117393;1185;23553;-59
2022/04/10 05:54:09;;;;;;;4.80;2.10;;;;;;;16.59;47.60;99482.38;117304;1185;21954;-58
2022/04/10 05:56:38;;;;;;;4.80;2.20;;;;;;;16.57;47.61;99485.68;117374;1185;22829;-58
2022/04/10 05:59:07;;;;;;;4.40;2.30;;;;;;;16.51;47.55;99487.05;117305;1185;21921;-59
2022/04/10 06:01:35;;;;;;;4.30;2.20;;;;;;;16.48;47.61;99485.20;117286;1185;22822;-58
2022/04/10 06:04:04;;;;;;;3.60;2.30;;;;;;;16.51;47.66;99486.52;117310;1185;22823;-59
2022/04/10 06:06:33;;;;;;;4.60;2.40;;;;;;;16.53;47.65;99490.67;117426;1185;22289;-59
2022/04/10 06:09:01;;;;;;;6.00;2.60;;;;;;;16.55;47.57;99488.61;117331;1185;23570;-58
2022/04/10 06:11:30;;;;;;;4.70;2.00;;;;;;;16.59;47.62;99486.63;117302;1184;23563;-59
2022/04/10 06:13:59;;;;;;;5.90;2.50;;;;;;;16.66;47.65;99490.52;117331;1184;22824;-58
2022/04/10 06:16:49;;;;;;;76.60;37.30;;;;;;;16.76;47.74;99491.59;117780;1185;22925;-58
2022/04/10 06:19:18;;;;;;;10.50;7.00;;;;;;;16.85;47.62;99488.98;117782;1185;21848;-58
2022/04/10 06:21:48;;;;;;;5.90;4.80;;;;;;;16.82;47.74;99487.56;117295;1188;21855;-49
2022/04/10 06:24:16;;;;;;;3.50;2.70;;;;;;;16.85;47.89;99489.35;117346;1185;22892;-49
2022/04/10 06:26:46;;;;;;;3.40;2.40;;;;;;;16.99;47.65;99496.27;117412;1184;22823;-50
2022/04/10 06:29:16;;;;;;;5.20;2.30;;;;;;;17.00;47.83;99500.47;117361;1185;21848;-49
2022/04/10 06:31:59;;;;;;;3.70;2.20;;;;;;;17.02;47.88;99493.80;117241;1185;22813;-49
2022/04/10 06:34:27;;;;;;;3.40;1.90;;;;;;;17.08;47.90;99489.74;117402;1185;22942;-49
2022/04/10 06:36:56;;;;;;;3.60;2.20;;;;;;;17.09;47.73;99490.08;117298;1185;22842;-49
2022/04/10 06:39:25;;;;;;;5.60;2.30;;;;;;;17.08;47.72;99484.64;117279;1186;23544;-49
2022/04/10 06:41:54;;;;;;;4.60;2.70;;;;;;;17.09;47.72;99483.71;117088;1186;21874;-57
2022/04/10 06:44:23;;;;;;;4.40;2.40;;;;;;;17.23;47.70;99483.83;117369;1185;21864;-58
2022/04/10 06:46:51;;;;;;;4.00;2.70;;;;;;;17.37;47.85;99481.64;117207;1186;22366;-49
2022/04/10 06:49:22;;;;;;;3.40;2.30;;;;;;;17.51;48.00;99481.95;117290;1186;22828;-49
2022/04/10 06:51:50;;;;;;;5.70;2.30;;;;;;;17.73;47.90;99487.85;117306;1185;21862;-50
2022/04/10 06:54:29;;;;;;;4.90;2.50;;;;;;;17.76;48.08;99485.36;117237;1186;22631;-50
2022/04/10 06:56:57;;;;;;;3.80;2.50;;;;;;;17.85;47.91;99478.64;117385;1184;22801;-50
2022/04/10 06:59:26;;;;;;;4.20;2.40;;;;;;;17.96;47.62;99477.83;117309;1185;23579;-49
2022/04/10 07:01:54;;;;;;;7.70;2.80;;;;;;;18.00;47.63;99478.52;117358;1185;23553;-50
2022/04/10 07:04:23;;;;;;;5.00;2.50;;;;;;;18.02;47.44;99482.15;117119;1186;22896;-48
2022/04/10 07:06:52;;;;;;;4.80;2.30;;;;;;;17.98;47.55;99479.37;117307;1185;23553;-49
2022/04/10 07:09:20;;;;;;;4.00;2.40;;;;;;;17.99;47.94;99482.48;117276;1185;22619;-49
2022/04/10 07:11:55;;;;;;;5.10;3.30;;;;;;;18.31;48.26;99479.95;117253;1186;22781;-50
2022/04/10 07:14:24;;;;;;;11.00;5.90;;;;;;;18.57;48.26;99482.00;117208;1186;21855;-49
2022/04/10 07:16:52;;;;;;;89.70;57.00;;;;;;;18.73;48.18;99476.42;117335;1185;23713;-49
2022/04/10 07:19:22;;;;;;;9.30;5.10;;;;;;;18.84;48.04;99476.95;117339;1186;23579;-58
2022/04/10 07:24:39;;;;;;;11.50;4.00;;;;;;;19.10;48.07;99470.11;117224;1185;23553;-49
2022/04/10 07:27:08;;;;;;;5.80;3.70;;;;;;;19.28;48.13;99461.66;117313;1185;23576;-49
2022/04/10 07:29:37;;;;;;;9.00;6.20;;;;;;;19.54;48.18;99461.86;117250;1186;22664;-51
2022/04/10 07:32:06;;;;;;;10.00;6.20;;;;;;;19.78;48.26;99466.30;117258;1185;23553;-49
2022/04/10 07:34:35;;;;;;;11.50;7.10;;;;;;;19.98;48.01;99464.33;117321;1185;21865;-49
2022/04/10 07:37:04;;;;;;;15.00;9.30;;;;;;;20.05;47.44;99463.89;117305;1185;21866;-49
2022/04/10 07:39:33;;;;;;;78.40;51.00;;;;;;;19.98;47.32;99462.42;117339;1185;22654;-50
2022/04/10 07:42:03;;;;;;;24.20;20.20;;;;;;;19.84;47.42;99473.26;117323;1185;21855;-53
2022/04/10 07:44:56;;;;;;;81.00;57.10;;;;;;;19.78;47.38;99475.92;117328;1185;21855;-50
2022/04/10 07:47:41;;;;;;;32.70;24.60;;;;;;;19.72;47.30;99473.66;117206;1185;22436;-51
2022/04/10 07:50:10;;;;;;;50.60;32.00;;;;;;;19.73;47.41;99472.69;117290;1186;23556;-50
2022/04/10 07:52:38;;;;;;;29.00;19.00;;;;;;;19.84;47.50;99464.38;117267;1185;23557;-50
2022/04/10 07:55:08;;;;;;;19.00;10.60;;;;;;;19.97;47.53;99458.73;118221;1185;22828;-50
2022/04/10 07:57:39;;;;;;;34.70;19.70;;;;;;;20.10;47.43;99461.45;117975;1185;21895;-59
2022/04/10 08:00:08;;;;;;;9.30;6.20;;;;;;;20.17;47.39;99470.02;117374;1185;23560;-59
2022/04/10 08:02:38;;;;;;;9.20;5.70;;;;;;;20.25;47.47;99475.74;117342;1185;22929;-59
2022/04/10 08:05:07;;;;;;;8.30;4.90;;;;;;;20.37;47.40;99479.98;117297;1181;22899;-59
2022/04/10 08:07:56;;;;;;;7.40;4.50;;;;;;;20.44;47.27;99479.15;117277;1182;21860;-59
2022/04/10 08:10:24;;;;;;;14.00;7.00;;;;;;;20.48;47.20;99478.68;117197;1186;22991;-57
2022/04/10 08:13:06;;;;;;;10.80;5.70;;;;;;;20.56;47.27;99484.73;117174;1186;23844;-58
2022/04/10 08:15:36;;;;;;;;;;;;;;;20.62;47.13;99487.37;117240;1186;21838;-58
2022/04/10 08:18:31;;;;;;;32.70;23.60;;;;;;;20.60;46.92;99482.14;117322;1185;21856;-58
2022/04/10 08:21:00;;;;;;;37.20;32.60;;;;;;;20.57;46.89;99477.52;117271;1186;21904;-50
2022/04/10 08:23:48;;;;;;;114.90;102.20;;;;;;;20.50;46.82;99473.56;117194;1184;21862;-50
2022/04/10 08:26:16;;;;;;;26.40;20.70;;;;;;;20.45;46.81;99472.61;117108;1189;23576;-57
2022/04/10 08:28:49;;;;;;;476.70;297.50;;;;;;;20.52;47.03;99470.39;117317;1185;24152;-57
2022/04/10 08:31:17;;;;;;;136.00;80.30;;;;;;;20.67;47.02;99460.46;117390;1186;21851;-58
2022/04/10 08:33:46;;;;;;;41.60;22.30;;;;;;;20.81;47.00;99457.19;117369;1181;22334;-59
2022/04/10 08:36:14;;;;;;;21.80;12.40;;;;;;;20.94;47.11;99458.13;117265;1185;22909;-58
2022/04/10 08:38:43;;;;;;;8.30;5.90;;;;;;;21.13;47.20;99456.60;117316;1186;23566;-58
2022/04/10 08:41:12;;;;;;;305.70;174.70;;;;;;;21.34;47.29;99450.27;117298;1182;23557;-50
2022/04/10 08:43:47;;;;;;;38.60;24.00;;;;;;;21.57;47.29;99440.77;117131;1186;23595;-51
2022/04/10 08:46:15;;;;;;;13.20;9.30;;;;;;;21.81;47.23;99449.77;117394;1185;23588;-51
2022/04/10 08:48:44;;;;;;;39.00;31.10;;;;;;;21.97;47.05;99449.80;117416;1185;23502;-51
2022/04/10 08:51:32;;;;;;;10.70;8.00;;;;;;;22.00;46.76;99445.36;117312;1187;21893;-59
2022/04/10 08:54:03;;;;;;;41.00;23.80;;;;;;;22.06;46.79;99444.88;118466;1185;22986;-50
2022/04/10 08:56:31;;;;;;;14.30;8.50;;;;;;;22.09;46.67;99436.79;118559;1184;21905;-59
2022/04/10 08:59:00;;;;;;;20.10;13.80;;;;;;;22.01;46.31;99437.73;117304;1185;23640;-51
2022/04/10 09:01:29;;;;;;;9.70;6.90;;;;;;;21.96;45.99;99440.45;117244;1186;23651;-52
2022/04/10 09:03:57;;;;;;;8.90;5.10;;;;;;;21.87;46.01;99447.16;117395;1184;21848;-49
2022/04/10 09:06:26;;;;;;;19.50;12.40;;;;;;;21.90;46.29;99445.86;117296;1187;21859;-51
2022/04/10 09:09:16;;;;;;;9.40;5.70;;;;;;;21.96;46.16;99443.13;117262;1186;22816;-51
2022/04/10 09:11:54;;;;;;;6.00;3.60;;;;;;;22.11;46.33;99441.14;117320;1180;22947;-58
2022/04/10 09:14:27;;;;;;;3.90;2.90;;;;;;;22.26;46.40;99440.86;117308;1186;21855;-58
2022/04/10 09:17:11;;;;;;;5.70;3.50;;;;;;;22.43;46.43;99434.95;117246;1186;21863;-53
2022/04/10 09:20:00;;;;;;;4.40;2.90;;;;;;;22.65;46.30;99425.44;117260;1182;22492;-50
2022/04/10 09:22:29;;;;;;;9.50;2.70;;;;;;;22.81;46.44;99422.40;117387;1186;22996;-49
2022/04/10 09:25:07;;;;;;;6.50;3.20;;;;;;;23.00;46.26;99418.92;117327;1186;21850;-50
2022/04/10 09:27:38;;;;;;;4.00;2.30;;;;;;;23.12;46.18;99407.63;117304;1184;23528;-49
2022/04/10 09:30:19;;;;;;;4.50;2.20;;;;;;;23.30;46.28;99402.59;117275;1181;23569;-51
2022/04/10 09:32:53;;;;;;;5.20;2.50;;;;;;;23.53;46.20;99403.25;117298;1189;22929;-49
2022/04/10 09:35:23;;;;;;;6.70;2.40;;;;;;;23.69;45.93;99398.88;117233;1186;23474;-51
2022/04/10 09:37:54;;;;;;;3.70;2.10;;;;;;;23.72;45.81;99396.14;117302;1185;22926;-49
2022/04/10 09:40:33;;;;;;;3.90;2.00;;;;;;;23.83;45.99;99389.32;117286;1185;23650;-51
2022/04/10 09:43:05;;;;;;;4.90;2.00;;;;;;;23.99;46.03;99385.54;117313;1186;22931;-51
2022/04/10 09:45:45;;;;;;;5.30;2.80;;;;;;;24.16;45.93;99384.63;117281;1186;23630;-51
2022/04/10 09:48:24;;;;;;;3.30;2.10;;;;;;;24.36;45.86;99374.88;117282;1186;23028;-51
2022/04/10 09:50:57;;;;;;;3.70;2.20;;;;;;;24.50;45.90;99367.23;117445;1183;23589;-51
2022/04/10 09:53:27;;;;;;;4.10;2.50;;;;;;;24.59;46.10;99370.55;117394;1186;23573;-50
2022/04/10 09:56:00;;;;;;;4.90;2.80;;;;;;;24.79;46.09;99371.80;117346;1185;21954;-51
2022/04/10 09:58:31;;;;;;;7.60;2.60;;;;;;;24.92;45.91;99368.09;117346;1183;21957;-57
2022/04/10 10:01:03;;;;;;;4.90;2.30;;;;;;;25.04;45.89;99369.77;117405;1185;21872;-58
2022/04/10 10:03:37;;;;;;;4.00;2.40;;;;;;;25.12;45.70;99372.44;117444;1186;22163;-50
2022/04/10 10:06:09;;;;;;;3.40;2.20;;;;;;;25.26;45.70;99378.16;117251;1186;21851;-59
2022/04/10 10:08:58;;;;;;;4.80;2.70;;;;;;;25.43;45.59;99377.95;117038;1186;23465;-59
2022/04/10 10:11:28;;;;;;;3.90;2.40;;;;;;;25.45;45.48;99381.35;117156;1186;21842;-59
2022/04/10 10:14:16;;;;;;;3.30;2.20;;;;;;;25.44;45.29;99385.02;117102;1185;21854;-59
2022/04/10 10:16:45;;;;;;;4.30;2.20;;;;;;;25.53;45.46;99386.41;117306;1186;21861;-59
2022/04/10 10:19:34;;;;;;;2.40;1.90;;;;;;;25.70;45.29;99385.77;116986;1187;21861;-59
2022/04/10 10:22:04;;;;;;;;;;;;;;;25.82;45.11;99381.95;117357;1184;21936;-59
2022/04/10 10:25:12;;;;;;;2.30;1.70;;;;;;;25.90;45.10;99384.27;117307;1184;21872;-59
2022/04/10 10:27:56;;;;;;;3.00;1.80;;;;;;;26.07;45.15;99384.35;117127;1185;22728;-59
2022/04/10 10:30:28;;;;;;;4.10;1.90;;;;;;;26.28;45.18;99393.77;117283;1185;21852;-58
2022/04/10 10:33:14;;;;;;;4.10;2.60;;;;;;;26.50;45.10;99389.39;117207;1186;21864;-59
2022/04/10 10:35:44;;;;;;;3.90;2.10;;;;;;;26.71;44.76;99388.48;117379;1186;23629;-59
2022/04/10 10:38:31;;;;;;;3.10;2.00;;;;;;;26.81;44.88;99383.90;117320;1182;21855;-57
2022/04/10 10:41:12;;;;;;;2.90;1.90;;;;;;;27.04;44.72;99385.38;117081;1186;23567;-52
2022/04/10 10:43:42;;;;;;;12.10;7.90;;;;;;;27.04;44.46;99381.02;117260;1186;23455;-52
2022/04/10 10:46:32;;;;;;;7.20;4.00;;;;;;;26.89;44.16;99383.48;117246;1182;22929;-52
2022/04/10 10:49:20;;;;;;;3.90;2.40;;;;;;;26.86;44.27;99387.75;117226;1182;21856;-52
2022/04/10 10:51:53;;;;;;;4.10;2.20;;;;;;;26.92;44.05;99387.98;117214;1184;24283;-51
2022/04/10 10:54:24;;;;;;;3.70;2.30;;;;;;;26.75;43.81;99389.46;117260;1185;22719;-52
2022/04/10 10:57:25;;;;;;;6.60;3.40;;;;;;;26.62;43.80;99383.20;117187;1186;22880;-52
2022/04/10 11:00:06;;;;;;;5.50;3.10;;;;;;;26.54;43.55;99382.21;117245;1187;22929;-51
2022/04/10 11:02:36;;;;;;;5.30;2.50;;;;;;;26.50;43.63;99382.67;117260;1185;25201;-53
2022/04/10 11:05:25;;;;;;;4.20;2.10;;;;;;;26.53;43.69;99382.27;117163;1186;23555;-59
2022/04/10 11:08:10;;;;;;;3.70;2.00;;;;;;;26.69;43.92;99381.95;117061;1186;23674;-60
2022/04/10 11:11:03;;;;;;;17.40;7.10;;;;;;;26.88;43.69;99376.45;117262;1183;22649;-58
2022/04/10 11:13:42;;;;;;;4.00;2.80;;;;;;;27.02;43.58;99372.76;117406;1184;23551;-52
2022/04/10 11:16:12;;;;;;;4.60;3.00;;;;;;;27.11;43.49;99367.52;117382;1189;21977;-52
2022/04/10 11:18:53;;;;;;;10.00;5.70;;;;;;;27.16;43.42;99363.44;117345;1186;23590;-52
2022/04/10 11:21:21;;;;;;;6.80;3.70;;;;;;;27.24;43.36;99355.32;117227;1187;22983;-59
2022/04/10 11:23:58;;;;;;;4.70;3.70;;;;;;;27.33;43.51;99350.50;117106;1187;22449;-59
2022/04/10 11:26:35;;;;;;;4.70;2.80;;;;;;;27.37;43.24;99351.02;117123;1186;23736;-58
2022/04/10 11:29:09;;;;;;;4.70;2.90;;;;;;;27.35;43.19;99348.80;117225;1186;22947;-52
2022/04/10 11:31:51;;;;;;;5.90;2.70;;;;;;;27.37;43.00;99340.16;117217;1186;23580;-58
2022/04/10 11:34:21;;;;;;;6.10;4.90;;;;;;;27.22;42.60;99332.79;117057;1189;22175;-50
2022/04/10 11:36:54;;;;;;;7.10;5.50;;;;;;;27.03;42.58;99328.48;117215;1186;22541;-52
2022/04/10 11:39:43;;;;;;;6.00;4.10;;;;;;;26.82;42.37;99328.94;117242;1189;21857;-52
2022/04/10 11:42:12;;;;;;;5.50;2.90;;;;;;;26.51;42.27;99334.02;117137;1188;21855;-51
2022/04/10 11:44:41;;;;;;;6.90;3.30;;;;;;;26.34;42.44;99338.17;117131;1187;24265;-58
2022/04/10 11:47:10;;;;;;;4.60;2.80;;;;;;;26.18;42.55;99334.64;117110;1187;23582;-59
2022/04/10 11:49:40;;;;;;;;;;;;;;;26.03;42.62;99329.56;117101;1188;21921;-58
2022/04/10 11:52:08;;;;;;;4.80;3.30;;;;;;;25.99;42.61;99325.75;117138;1186;22704;-59
2022/04/10 11:54:54;;;;;;;5.00;3.30;;;;;;;25.88;42.56;99330.20;117154;1186;22988;-51